Time;durP1;ratioP1;P1;durP2;ratioP2;P2;SDS_P1;SDS_P2;PMS_P1;PMS_P2;Temp;Humidity;BMP_temperature;BMP_pressure;BME280_temperature;BME280_humidity;BME280_pressure;Samples;Min_cycle;Max_cycle;Signal;HPM_P1;HPM_P2
2021/12/22 00:00:19;;;;;;;22.02;13.18;;;1.00;99.90;;;;;;5109416;28;20051;-69
2021/12/22 00:02:48;;;;;;;20.02;12.88;;;1.00;99.90;;;;;;5110183;28;20039;-69
2021/12/22 00:05:19;;;;;;;20.80;12.15;;;1.00;99.90;;;;;;5108374;27;20048;-69
2021/12/22 00:07:44;;;;;;;21.77;12.32;;;1.00;99.90;;;;;;5109298;28;20112;-69
2021/12/22 00:10:10;;;;;;;16.38;11.77;;;1.00;99.90;;;;;;5108172;28;20093;-69
2021/12/22 00:12:36;;;;;;;28.75;14.40;;;0.90;99.90;;;;;;5101651;27;20185;-69
2021/12/22 00:15:03;;;;;;;20.92;13.10;;;1.00;99.90;;;;;;5129230;27;20701;-69
2021/12/22 00:17:29;;;;;;;20.40;13.25;;;0.90;99.90;;;;;;5109209;27;20177;-69
2021/12/22 00:19:54;;;;;;;17.23;12.73;;;0.90;99.90;;;;;;5109289;28;20118;-70
2021/12/22 00:22:20;;;;;;;27.10;13.50;;;0.90;99.90;;;;;;5107774;27;20043;-69
2021/12/22 00:24:46;;;;;;;19.85;11.95;;;0.90;99.90;;;;;;5121676;27;20047;-69
2021/12/22 00:27:11;;;;;;;22.17;12.23;;;0.90;99.90;;;;;;5129969;27;20070;-69
2021/12/22 00:29:37;;;;;;;19.95;13.18;;;0.90;99.90;;;;;;5125433;27;20126;-69
2021/12/22 00:32:11;;;;;;;20.00;11.02;;;0.80;99.90;;;;;;5139116;27;20178;-70
2021/12/22 00:34:46;;;;;;;18.08;12.25;;;0.90;99.90;;;;;;5134637;27;20062;-69
2021/12/22 00:37:12;;;;;;;18.98;12.57;;;0.90;99.90;;;;;;5130064;27;20051;-69
2021/12/22 00:39:38;;;;;;;21.27;11.07;;;0.80;99.90;;;;;;5118104;27;20050;-69
2021/12/22 00:42:04;;;;;;;19.42;12.00;;;0.90;99.90;;;;;;5124281;27;20039;-69
2021/12/22 00:44:30;;;;;;;20.98;12.65;;;0.90;99.90;;;;;;5125745;27;20027;-69
2021/12/22 00:46:55;;;;;;;19.67;13.15;;;0.90;99.90;;;;;;5129382;27;20213;-70
2021/12/22 00:49:21;;;;;;;29.80;13.57;;;0.90;99.90;;;;;;5136195;27;20045;-70
2021/12/22 00:51:46;;;;;;;18.90;12.73;;;0.90;99.90;;;;;;5150319;27;20137;-69
2021/12/22 00:54:12;;;;;;;22.35;12.65;;;0.90;99.90;;;;;;5106047;27;20078;-69
2021/12/22 00:56:38;;;;;;;27.75;13.88;;;0.80;99.90;;;;;;5150167;27;20050;-70
2021/12/22 00:59:04;;;;;;;17.17;12.23;;;0.90;99.90;;;;;;5130228;27;20051;-69
2021/12/22 01:01:29;;;;;;;16.50;11.32;;;0.80;99.90;;;;;;5131626;27;20046;-69
2021/12/22 01:03:56;;;;;;;23.52;12.93;;;0.80;99.90;;;;;;5139094;27;20112;-69
2021/12/22 01:06:23;;;;;;;21.13;12.57;;;0.70;99.90;;;;;;5111114;28;20432;-69
2021/12/22 01:08:49;;;;;;;17.65;11.45;;;0.70;99.90;;;;;;5134316;27;20042;-69
2021/12/22 01:11:15;;;;;;;19.83;13.13;;;0.80;99.90;;;;;;5129155;27;20039;-69
2021/12/22 01:13:41;;;;;;;20.52;11.93;;;0.80;99.90;;;;;;5140901;27;20050;-69
2021/12/22 01:16:06;;;;;;;20.38;11.93;;;0.80;99.90;;;;;;5146710;27;20236;-69
2021/12/22 01:18:34;;;;;;;18.92;11.60;;;0.80;99.90;;;;;;5149919;27;20053;-70
2021/12/22 01:21:20;;;;;;;20.83;11.52;;;0.70;99.90;;;;;;5112696;27;20048;-69
2021/12/22 01:24:10;;;;;;;18.65;10.75;;;0.80;99.90;;;;;;5150057;27;20436;-69
2021/12/22 01:26:41;;;;;;;18.92;11.38;;;0.80;99.90;;;;;;5134752;27;20052;-69
2021/12/22 01:29:07;;;;;;;19.90;11.52;;;0.70;99.90;;;;;;5118243;28;20054;-69
2021/12/22 01:31:32;;;;;;;19.73;11.25;;;0.70;99.90;;;;;;5110279;28;20051;-69
2021/12/22 01:33:58;;;;;;;25.85;12.85;;;0.70;99.90;;;;;;5128733;28;20414;-69
2021/12/22 01:36:23;;;;;;;17.55;11.05;;;0.70;99.90;;;;;;5124364;27;20081;-69
2021/12/22 01:38:49;;;;;;;20.05;12.35;;;0.70;99.90;;;;;;5128280;27;20039;-69
2021/12/22 01:41:15;;;;;;;21.13;12.57;;;0.70;99.90;;;;;;5136228;27;20062;-69
2021/12/22 01:43:40;;;;;;;15.27;11.02;;;0.70;99.90;;;;;;5137964;27;20039;-69
2021/12/22 01:46:31;;;;;;;20.10;11.63;;;0.70;99.90;;;;;;5128159;28;20184;-69
2021/12/22 01:49:10;;;;;;;18.45;12.25;;;0.60;99.90;;;;;;5136743;27;20043;-70
2021/12/22 01:51:54;;;;;;;19.40;11.30;;;0.60;99.90;;;;;;5128989;28;20502;-69
2021/12/22 01:54:19;;;;;;;17.25;11.82;;;0.60;99.90;;;;;;5108208;28;20096;-69
2021/12/22 01:56:49;;;;;;;18.77;10.80;;;0.70;99.90;;;;;;5115521;27;20451;-69
2021/12/22 01:59:15;;;;;;;23.23;11.45;;;0.60;99.90;;;;;;5112706;28;20470;-69
2021/12/22 02:01:41;;;;;;;20.60;12.38;;;0.60;99.90;;;;;;5113123;27;20607;-69
2021/12/22 02:04:10;;;;;;;17.55;11.82;;;0.60;99.90;;;;;;5132720;27;20088;-69
2021/12/22 02:06:45;;;;;;;22.63;12.18;;;0.50;99.90;;;;;;5113197;27;20039;-69
2021/12/22 02:09:15;;;;;;;23.48;12.15;;;0.60;99.90;;;;;;5132483;27;20103;-69
2021/12/22 02:11:41;;;;;;;22.10;11.95;;;0.50;99.90;;;;;;5133054;27;20509;-69
2021/12/22 02:14:07;;;;;;;21.15;12.70;;;0.40;99.90;;;;;;5141792;27;20129;-69
2021/12/22 02:16:37;;;;;;;17.50;11.10;;;0.40;99.90;;;;;;5153882;27;20035;-69
2021/12/22 02:19:06;;;;;;;17.33;12.18;;;0.40;99.90;;;;;;5112043;27;20047;-69
2021/12/22 02:21:37;;;;;;;22.05;12.05;;;0.40;99.90;;;;;;5113583;27;20074;-69
2021/12/22 02:24:03;;;;;;;21.23;12.15;;;0.40;99.90;;;;;;5129673;27;20053;-69
2021/12/22 02:26:37;;;;;;;17.92;11.95;;;0.40;99.90;;;;;;5136804;27;20027;-69
2021/12/22 02:29:06;;;;;;;20.15;12.65;;;0.40;99.90;;;;;;5147193;27;20047;-69
2021/12/22 02:31:39;;;;;;;20.42;12.38;;;0.40;99.90;;;;;;5131487;27;20058;-69
2021/12/22 02:34:06;;;;;;;23.80;14.00;;;0.40;99.90;;;;;;5135221;27;20062;-69
2021/12/22 02:36:38;;;;;;;21.20;11.20;;;0.40;99.90;;;;;;5152593;27;20074;-69
2021/12/22 02:39:04;;;;;;;17.70;11.32;;;0.40;99.90;;;;;;5131192;27;20069;-70
2021/12/22 02:41:31;;;;;;;15.80;11.82;;;0.30;99.90;;;;;;5142739;27;20042;-69
2021/12/22 02:43:59;;;;;;;18.25;11.07;;;0.40;99.90;;;;;;5138369;27;20051;-70
2021/12/22 02:46:25;;;;;;;23.90;12.20;;;0.30;99.90;;;;;;5128091;27;20043;-70
2021/12/22 02:48:52;;;;;;;18.10;11.68;;;0.30;99.90;;;;;;5112239;27;20043;-69
2021/12/22 02:51:19;;;;;;;17.23;12.10;;;0.30;99.90;;;;;;5130595;27;20055;-69
2021/12/22 02:59:03;;;;;;;14.18;11.23;;;0.20;99.90;;;;;;5131802;27;20073;-69
2021/12/22 03:04:09;;;;;;;17.33;10.90;;;0.20;99.90;;;;;;5150129;27;20046;-69
2021/12/22 03:06:43;;;;;;;16.40;11.55;;;0.20;99.90;;;;;;5137961;27;20035;-69
2021/12/22 03:09:22;;;;;;;23.23;12.82;;;0.20;99.90;;;;;;5130322;27;20047;-69
2021/12/22 03:11:48;;;;;;;22.63;12.88;;;0.10;99.90;;;;;;5128556;27;20039;-70
2021/12/22 03:14:15;;;;;;;16.30;11.95;;;0.10;99.90;;;;;;5131430;27;20049;-69
2021/12/22 03:16:44;;;;;;;20.65;12.65;;;0.20;99.90;;;;;;5131920;27;20080;-69
2021/12/22 03:19:12;;;;;;;20.10;13.40;;;0.20;99.90;;;;;;5123223;27;20096;-69
2021/12/22 03:21:41;;;;;;;20.20;13.23;;;0.10;99.90;;;;;;5129848;27;20786;-69
2021/12/22 03:24:07;;;;;;;19.48;11.68;;;0.10;99.90;;;;;;5132624;27;20042;-70
2021/12/22 03:26:32;;;;;;;22.13;12.05;;;0.10;99.90;;;;;;5147165;27;20544;-69
2021/12/22 03:28:58;;;;;;;21.85;12.70;;;0.10;99.90;;;;;;5106273;27;20058;-69
2021/12/22 03:31:23;;;;;;;17.40;11.05;;;0.10;99.90;;;;;;5151489;27;20501;-69
2021/12/22 03:33:49;;;;;;;20.10;12.82;;;0.10;99.90;;;;;;5115144;27;20058;-69
2021/12/22 03:36:15;;;;;;;19.27;11.73;;;0.10;99.90;;;;;;5112787;27;20039;-69
2021/12/22 03:38:42;;;;;;;19.00;11.32;;;0.10;99.90;;;;;;5140436;27;20403;-69
2021/12/22 03:41:09;;;;;;;18.35;12.05;;;0.10;99.90;;;;;;5133004;27;20073;-69
2021/12/22 03:43:35;;;;;;;22.65;12.05;;;0.10;99.90;;;;;;5114834;27;20482;-70
2021/12/22 03:46:02;;;;;;;16.60;12.35;;;0.10;99.90;;;;;;5131847;27;20371;-69
2021/12/22 03:48:28;;;;;;;19.52;11.45;;;0.10;99.90;;;;;;5131740;27;20469;-70
2021/12/22 03:50:54;;;;;;;17.58;11.77;;;0.00;99.90;;;;;;5112723;27;20050;-70
2021/12/22 03:53:20;;;;;;;16.48;11.13;;;0.00;99.90;;;;;;5142766;27;20142;-69
2021/12/22 03:55:46;;;;;;;15.90;11.70;;;0.00;99.90;;;;;;5132807;27;20083;-70
2021/12/22 03:58:11;;;;;;;20.73;12.10;;;0.00;99.90;;;;;;5146001;27;20047;-70
2021/12/22 04:00:40;;;;;;;20.13;12.25;;;0.00;99.90;;;;;;5108157;27;20035;-69
2021/12/22 04:03:10;;;;;;;19.83;12.35;;;-0.10;99.90;;;;;;5132302;27;20045;-69
2021/12/22 04:05:36;;;;;;;23.63;12.73;;;-0.10;99.90;;;;;;5125615;27;20062;-69
2021/12/22 04:08:02;;;;;;;16.15;10.68;;;-0.10;99.90;;;;;;5123525;27;20509;-69
2021/12/22 04:10:27;;;;;;;17.23;11.52;;;-0.10;99.90;;;;;;5112439;27;20079;-69
2021/12/22 04:12:55;;;;;;;18.50;11.38;;;-0.10;99.90;;;;;;5129915;27;20047;-70
2021/12/22 04:15:23;;;;;;;19.80;11.73;;;0.00;99.90;;;;;;5129676;27;20034;-69
2021/12/22 04:17:49;;;;;;;22.80;11.20;;;0.00;99.90;;;;;;5141859;27;20489;-70
2021/12/22 04:20:16;;;;;;;22.58;12.02;;;0.00;99.90;;;;;;5115364;27;20039;-69
2021/12/22 04:22:41;;;;;;;18.67;12.45;;;-0.10;99.90;;;;;;5127242;27;20065;-69
2021/12/22 04:25:09;;;;;;;18.30;11.20;;;-0.10;99.90;;;;;;5150348;27;20086;-69
2021/12/22 04:27:35;;;;;;;24.30;12.18;;;0.00;99.90;;;;;;5123536;27;20055;-69
2021/12/22 04:30:04;;;;;;;21.05;11.60;;;-0.10;99.90;;;;;;5127357;27;20519;-69
2021/12/22 04:32:30;;;;;;;20.10;11.98;;;-0.10;99.90;;;;;;5122936;27;20055;-69
2021/12/22 04:34:55;;;;;;;24.65;13.05;;;-0.10;99.90;;;;;;5110334;27;20055;-69
2021/12/22 04:37:21;;;;;;;21.23;13.48;;;-0.20;99.90;;;;;;5136783;27;20127;-69
2021/12/22 04:39:46;;;;;;;24.90;13.23;;;-0.20;99.90;;;;;;5150762;27;20047;-69
2021/12/22 04:42:12;;;;;;;18.50;10.73;;;-0.20;99.90;;;;;;5142676;27;20393;-69
2021/12/22 04:44:37;;;;;;;22.00;12.85;;;-0.20;99.90;;;;;;5143079;27;20070;-69
2021/12/22 04:47:03;;;;;;;20.13;11.50;;;-0.20;99.90;;;;;;5144485;27;20047;-69
2021/12/22 04:49:29;;;;;;;28.10;13.50;;;-0.20;99.90;;;;;;5134815;27;20044;-69
2021/12/22 04:51:56;;;;;;;23.15;13.68;;;-0.20;99.90;;;;;;5141589;27;20160;-69
2021/12/22 04:56:53;;;;;;;23.52;12.80;;;-0.20;99.90;;;;;;5133312;27;20047;-69
2021/12/22 04:59:19;;;;;;;25.98;12.95;;;-0.20;99.90;;;;;;5135203;27;20485;-69
2021/12/22 05:01:45;;;;;;;25.08;11.73;;;-0.20;99.90;;;;;;5137653;27;20046;-69
2021/12/22 05:04:11;;;;;;;24.10;12.63;;;-0.20;99.90;;;;;;5128937;27;20110;-69
2021/12/22 05:06:37;;;;;;;21.20;12.10;;;-0.20;99.90;;;;;;5128295;27;20059;-69
2021/12/22 05:09:04;;;;;;;31.60;16.08;;;-0.20;99.90;;;;;;5129215;27;20440;-69
2021/12/22 05:11:29;;;;;;;21.10;12.55;;;-0.20;99.90;;;;;;5128903;27;20075;-69
2021/12/22 05:13:55;;;;;;;18.08;12.13;;;-0.30;99.90;;;;;;5128159;27;20074;-69
2021/12/22 05:16:20;;;;;;;19.98;13.10;;;-0.30;99.90;;;;;;5144334;27;20050;-69
2021/12/22 05:18:51;;;;;;;23.75;13.82;;;-0.30;99.90;;;;;;5131524;27;20042;-69
2021/12/22 05:21:18;;;;;;;23.30;12.70;;;-0.30;99.90;;;;;;5149778;27;20426;-69
2021/12/22 05:23:44;;;;;;;26.27;12.30;;;-0.30;99.90;;;;;;5136376;27;20049;-69
2021/12/22 05:26:09;;;;;;;21.98;14.55;;;-0.30;99.90;;;;;;5109968;28;20035;-69
2021/12/22 05:28:35;;;;;;;17.75;11.88;;;-0.30;99.90;;;;;;5124834;27;20425;-69
2021/12/22 05:31:00;;;;;;;21.67;12.80;;;-0.30;99.90;;;;;;5142044;27;20050;-69
2021/12/22 05:33:26;;;;;;;21.50;13.07;;;-0.20;99.90;;;;;;5129241;28;20397;-69
2021/12/22 05:35:51;;;;;;;27.08;12.35;;;-0.30;99.90;;;;;;5128886;27;20038;-69
2021/12/22 05:38:17;;;;;;;20.63;12.70;;;-0.30;99.90;;;;;;5125532;27;20046;-69
2021/12/22 05:40:43;;;;;;;21.02;13.80;;;-0.30;99.90;;;;;;5127171;27;20114;-69
2021/12/22 05:43:09;;;;;;;23.08;13.55;;;-0.30;99.90;;;;;;5135678;27;20037;-69
2021/12/22 05:45:34;;;;;;;22.70;12.88;;;-0.30;99.90;;;;;;5137101;27;20541;-69
2021/12/22 05:48:00;;;;;;;17.83;12.85;;;-0.30;99.90;;;;;;5153255;27;20038;-69
2021/12/22 05:50:26;;;;;;;24.73;13.43;;;-0.30;99.90;;;;;;5117310;27;20073;-69
2021/12/22 05:52:51;;;;;;;26.55;14.40;;;-0.20;99.90;;;;;;5110388;27;20043;-69
2021/12/22 05:55:17;;;;;;;24.63;12.90;;;-0.20;99.90;;;;;;5142057;27;20039;-69
2021/12/22 05:57:43;;;;;;;22.90;13.88;;;-0.30;99.90;;;;;;5141888;27;20087;-69
2021/12/22 06:00:09;;;;;;;23.05;14.23;;;-0.30;99.90;;;;;;5132001;27;20046;-69
2021/12/22 06:02:35;;;;;;;23.27;13.45;;;-0.30;99.90;;;;;;5114717;27;20042;-69
2021/12/22 06:05:00;;;;;;;18.63;12.35;;;-0.30;99.90;;;;;;5114111;27;20055;-69
2021/12/22 06:07:26;;;;;;;20.55;12.90;;;-0.40;99.90;;;;;;5128875;27;20072;-69
2021/12/22 06:09:51;;;;;;;22.77;14.23;;;-0.40;99.90;;;;;;5113692;27;20035;-69
2021/12/22 06:12:17;;;;;;;21.67;12.80;;;-0.40;99.90;;;;;;5134932;27;20047;-69
2021/12/22 06:14:43;;;;;;;19.20;12.82;;;-0.40;99.90;;;;;;5143675;27;20043;-69
2021/12/22 06:17:08;;;;;;;21.02;13.27;;;-0.50;99.90;;;;;;5134804;27;20042;-69
2021/12/22 06:19:34;;;;;;;21.95;13.07;;;-0.40;99.90;;;;;;5149215;27;20550;-69
2021/12/22 06:22:00;;;;;;;23.90;13.55;;;-0.50;99.90;;;;;;5131951;27;20049;-69
2021/12/22 06:24:25;;;;;;;22.45;13.65;;;-0.50;99.90;;;;;;5149800;27;20039;-69
2021/12/22 06:26:51;;;;;;;23.25;12.68;;;-0.50;99.90;;;;;;5111927;27;20054;-69
2021/12/22 06:29:17;;;;;;;24.83;14.55;;;-0.50;99.90;;;;;;5132007;27;20550;-69
2021/12/22 06:31:42;;;;;;;23.52;12.68;;;-0.50;99.90;;;;;;5114019;27;20043;-69
2021/12/22 06:34:08;;;;;;;22.23;13.25;;;-0.50;99.90;;;;;;5130456;27;20107;-69
2021/12/22 06:36:33;;;;;;;20.65;12.40;;;-0.50;99.90;;;;;;5114279;27;20053;-69
2021/12/22 06:38:59;;;;;;;27.48;15.00;;;-0.50;99.90;;;;;;5111787;27;20074;-69
2021/12/22 06:41:25;;;;;;;25.88;14.18;;;-0.60;99.90;;;;;;5131694;27;20051;-69
2021/12/22 06:43:51;;;;;;;18.33;12.02;;;-0.70;99.90;;;;;;5130322;27;20047;-69
2021/12/22 06:46:16;;;;;;;23.83;14.35;;;-0.60;99.90;;;;;;5134328;27;20127;-69
2021/12/22 06:48:42;;;;;;;28.83;14.57;;;-0.60;99.90;;;;;;5147707;27;20070;-69
2021/12/22 06:51:07;;;;;;;22.40;14.05;;;-0.60;99.90;;;;;;5106748;27;20043;-69
2021/12/22 06:53:36;;;;;;;20.15;14.10;;;-0.70;99.90;;;;;;5113484;27;20046;-69
2021/12/22 06:56:03;;;;;;;23.73;14.70;;;-0.70;99.90;;;;;;5130666;27;20061;-69
2021/12/22 06:58:29;;;;;;;24.38;15.30;;;-0.70;99.90;;;;;;5109676;27;20096;-70
2021/12/22 07:00:55;;;;;;;20.17;13.32;;;-0.70;99.90;;;;;;5139660;27;20050;-68
2021/12/22 07:03:20;;;;;;;25.88;14.55;;;-0.60;99.90;;;;;;5134421;27;20097;-69
2021/12/22 07:05:46;;;;;;;22.73;14.00;;;-0.70;99.90;;;;;;5139133;27;20039;-68
2021/12/22 07:08:11;;;;;;;24.63;16.25;;;-0.60;99.90;;;;;;5114707;27;20048;-69
2021/12/22 07:10:37;;;;;;;23.60;13.85;;;-0.70;99.90;;;;;;5119083;27;20572;-69
2021/12/22 07:13:04;;;;;;;28.27;14.90;;;-0.60;99.90;;;;;;5152364;27;20581;-69
2021/12/22 07:15:30;;;;;;;26.90;14.98;;;-0.70;99.90;;;;;;5128359;27;20054;-69
2021/12/22 07:17:56;;;;;;;22.38;15.23;;;-0.60;99.90;;;;;;5131385;27;20054;-69
2021/12/22 07:20:22;;;;;;;27.85;15.00;;;-0.70;99.90;;;;;;5147567;27;20047;-68
2021/12/22 07:22:48;;;;;;;24.73;15.35;;;-0.70;99.90;;;;;;5128584;27;20084;-69
2021/12/22 07:25:15;;;;;;;26.65;15.20;;;-0.70;99.90;;;;;;5130446;27;20054;-68
2021/12/22 07:27:41;;;;;;;26.88;16.38;;;-0.70;99.90;;;;;;5125887;27;20398;-69
2021/12/22 07:30:07;;;;;;;20.65;13.57;;;-0.70;99.90;;;;;;5111376;27;20042;-69
2021/12/22 07:32:33;;;;;;;26.00;15.38;;;-0.70;99.90;;;;;;5131208;27;20707;-68
2021/12/22 07:35:07;;;;;;;27.45;15.00;;;-0.70;99.90;;;;;;5132478;27;20047;-69
2021/12/22 07:37:43;;;;;;;23.58;14.93;;;-0.70;99.90;;;;;;5128777;27;20160;-69
2021/12/22 07:40:13;;;;;;;29.38;15.30;;;-0.70;99.90;;;;;;5110893;27;20062;-69
2021/12/22 07:42:39;;;;;;;26.52;14.63;;;-0.70;99.90;;;;;;5112816;27;20050;-69
2021/12/22 07:45:06;;;;;;;22.88;14.63;;;-0.70;99.90;;;;;;5121261;27;20161;-68
2021/12/22 07:47:32;;;;;;;21.33;13.88;;;-0.70;99.90;;;;;;5145370;27;20054;-69
2021/12/22 07:49:57;;;;;;;26.88;15.43;;;-0.70;99.90;;;;;;5118878;27;20035;-69
2021/12/22 07:52:26;;;;;;;26.63;15.57;;;-0.80;99.90;;;;;;5121141;27;20520;-68
2021/12/22 07:54:52;;;;;;;23.27;14.00;;;-0.70;99.90;;;;;;5121102;27;20458;-68
2021/12/22 07:57:17;;;;;;;25.48;16.30;;;-0.70;99.90;;;;;;5106003;27;20053;-69
2021/12/22 07:59:43;;;;;;;22.30;13.98;;;-0.70;99.90;;;;;;5121313;27;20089;-68
2021/12/22 08:02:10;;;;;;;29.38;15.18;;;-0.70;99.90;;;;;;5120429;27;20035;-69
2021/12/22 08:04:36;;;;;;;22.20;14.75;;;-0.70;99.90;;;;;;5106373;27;20070;-68
2021/12/22 08:07:02;;;;;;;23.48;14.85;;;-0.60;99.90;;;;;;5114194;27;20047;-69
2021/12/22 08:09:27;;;;;;;22.20;14.30;;;-0.60;99.90;;;;;;5134426;27;20470;-69
2021/12/22 08:11:54;;;;;;;22.98;13.82;;;-0.60;99.90;;;;;;5125518;27;20043;-68
2021/12/22 08:14:22;;;;;;;25.90;15.13;;;-0.60;99.90;;;;;;5116364;27;20074;-68
2021/12/22 08:16:48;;;;;;;25.63;15.13;;;-0.60;99.90;;;;;;5130886;27;20043;-68
2021/12/22 08:19:14;;;;;;;24.40;15.02;;;-0.60;99.90;;;;;;5145793;27;20039;-68
2021/12/22 08:21:39;;;;;;;26.83;14.25;;;-0.50;99.90;;;;;;5131929;27;20058;-68
2021/12/22 08:24:05;;;;;;;23.40;14.68;;;-0.50;99.90;;;;;;5150693;27;20031;-68
2021/12/22 08:26:31;;;;;;;25.23;14.45;;;-0.50;99.90;;;;;;5115822;27;20035;-68
2021/12/22 08:28:56;;;;;;;23.80;13.80;;;-0.40;99.90;;;;;;5130483;27;20043;-68
2021/12/22 08:31:22;;;;;;;23.63;14.73;;;-0.40;99.90;;;;;;5135621;27;20109;-68
2021/12/22 08:33:48;;;;;;;26.00;15.82;;;-0.40;99.90;;;;;;5117769;27;20053;-68
2021/12/22 08:39:03;;;;;;;22.08;14.05;;;-0.50;99.90;;;;;;5128984;27;20054;-68
2021/12/22 08:41:35;;;;;;;25.08;14.77;;;-0.40;99.90;;;;;;5103726;27;20039;-69
2021/12/22 08:44:10;;;;;;;20.55;13.48;;;-0.40;99.90;;;;;;5110032;27;20083;-69
2021/12/22 08:46:39;;;;;;;19.27;12.73;;;-0.40;99.90;;;;;;5123041;27;20043;-68
2021/12/22 08:49:06;;;;;;;24.30;14.02;;;-0.40;99.90;;;;;;5110539;27;20090;-68
2021/12/22 08:51:33;;;;;;;27.33;15.05;;;-0.40;99.90;;;;;;5133577;27;20030;-68
2021/12/22 08:54:00;;;;;;;27.92;16.10;;;-0.40;99.90;;;;;;5126373;27;20126;-68
2021/12/22 08:56:26;;;;;;;29.38;16.98;;;-0.40;99.90;;;;;;5122720;27;20038;-68
2021/12/22 08:58:54;;;;;;;29.63;14.77;;;-0.40;99.90;;;;;;5126060;27;20122;-68
2021/12/22 09:01:23;;;;;;;27.88;16.10;;;-0.40;99.90;;;;;;5129931;27;20081;-69
2021/12/22 09:03:50;;;;;;;22.88;14.18;;;-0.40;99.90;;;;;;5106126;27;20054;-69
2021/12/22 09:06:15;;;;;;;26.60;14.85;;;-0.30;99.90;;;;;;5121597;27;20043;-69
2021/12/22 09:08:42;;;;;;;23.92;13.25;;;-0.30;99.90;;;;;;5110555;27;20058;-69
2021/12/22 09:11:08;;;;;;;25.58;14.85;;;-0.30;99.90;;;;;;5128041;27;20382;-69
2021/12/22 09:13:36;;;;;;;22.52;13.90;;;-0.30;99.90;;;;;;5140376;27;20488;-69
2021/12/22 09:16:02;;;;;;;28.95;14.88;;;-0.30;99.90;;;;;;5115598;27;20196;-69
2021/12/22 09:18:28;;;;;;;26.23;14.57;;;-0.20;99.90;;;;;;5150403;27;20294;-69
2021/12/22 09:20:53;;;;;;;25.48;14.70;;;-0.20;99.90;;;;;;5150214;27;20125;-69
2021/12/22 09:23:19;;;;;;;23.10;12.95;;;-0.20;99.90;;;;;;5143693;27;20036;-69
2021/12/22 09:25:44;;;;;;;27.70;15.38;;;-0.20;99.90;;;;;;5150012;27;20039;-70
2021/12/22 09:28:12;;;;;;;22.70;14.90;;;-0.20;99.90;;;;;;5131546;27;20100;-69
2021/12/22 09:30:42;;;;;;;28.05;15.80;;;-0.10;99.90;;;;;;5137332;27;20036;-69
2021/12/22 09:33:12;;;;;;;27.63;13.80;;;0.00;99.90;;;;;;5126194;27;20047;-69
2021/12/22 09:35:38;;;;;;;27.95;15.93;;;0.00;99.90;;;;;;5110542;28;20088;-69
2021/12/22 09:38:06;;;;;;;25.85;13.95;;;0.00;99.90;;;;;;5128136;27;20471;-69
2021/12/22 09:40:32;;;;;;;25.13;14.73;;;0.00;99.90;;;;;;5131496;27;20054;-69
2021/12/22 09:42:57;;;;;;;27.65;14.00;;;0.10;99.90;;;;;;5112724;27;20628;-69
2021/12/22 09:45:25;;;;;;;28.27;14.95;;;0.10;99.90;;;;;;5148801;27;20043;-69
2021/12/22 09:48:03;;;;;;;24.58;14.07;;;0.20;99.90;;;;;;5112541;28;20031;-69
2021/12/22 09:50:51;;;;;;;28.17;15.98;;;0.20;99.90;;;;;;5110501;27;20074;-69
2021/12/22 09:53:20;;;;;;;30.13;16.33;;;0.30;99.90;;;;;;5149873;27;20585;-69
2021/12/22 09:55:47;;;;;;;27.40;15.70;;;0.30;99.90;;;;;;5150047;27;20077;-69
2021/12/22 09:58:12;;;;;;;26.15;15.73;;;0.30;99.90;;;;;;5144774;27;20046;-69
2021/12/22 10:00:39;;;;;;;30.33;15.77;;;0.30;99.90;;;;;;5149761;27;20545;-68
2021/12/22 10:03:06;;;;;;;24.70;14.57;;;0.40;99.90;;;;;;5115706;27;20082;-69
2021/12/22 10:05:32;;;;;;;30.40;15.27;;;0.40;99.90;;;;;;5128848;27;20075;-69
2021/12/22 10:08:06;;;;;;;24.10;15.20;;;0.40;99.90;;;;;;5113270;27;20053;-69
2021/12/22 10:10:32;;;;;;;22.73;15.40;;;0.50;99.90;;;;;;5149930;27;20051;-69
2021/12/22 10:13:07;;;;;;;33.70;15.00;;;0.50;99.90;;;;;;5149165;27;20080;-69
2021/12/22 10:15:34;;;;;;;28.70;15.30;;;0.60;99.90;;;;;;5150321;27;20095;-69
2021/12/22 10:18:15;;;;;;;30.63;14.73;;;0.60;99.90;;;;;;5135934;27;20130;-69
2021/12/22 10:20:42;;;;;;;28.63;15.20;;;0.60;99.90;;;;;;5115823;27;20660;-69
2021/12/22 10:23:23;;;;;;;27.90;14.93;;;0.60;99.90;;;;;;5137156;27;20039;-69
2021/12/22 10:26:00;;;;;;;25.65;15.13;;;0.70;99.90;;;;;;5148009;27;20070;-69
2021/12/22 10:28:29;;;;;;;28.70;15.27;;;0.70;99.90;;;;;;5124088;27;20078;-69
2021/12/22 10:30:58;;;;;;;30.80;16.00;;;0.70;99.90;;;;;;5134194;27;20067;-69
2021/12/22 10:33:28;;;;;;;31.50;14.93;;;0.80;99.90;;;;;;5144124;27;20047;-69
2021/12/22 10:36:00;;;;;;;27.58;14.43;;;0.80;99.90;;;;;;5151242;27;20491;-69
2021/12/22 10:38:29;;;;;;;25.23;15.05;;;0.80;99.90;;;;;;5121052;27;20062;-69
2021/12/22 10:40:57;;;;;;;27.58;16.23;;;0.80;99.90;;;;;;5139462;27;20027;-69
2021/12/22 10:43:29;;;;;;;28.15;16.95;;;0.80;99.90;;;;;;5114092;27;20039;-69
2021/12/22 10:46:00;;;;;;;36.63;18.02;;;0.80;99.90;;;;;;5113663;27;20046;-69
2021/12/22 10:51:20;;;;;;;27.08;16.17;;;0.90;99.90;;;;;;5148451;27;20124;-69
2021/12/22 10:53:49;;;;;;;27.92;15.35;;;0.90;99.90;;;;;;5153068;27;20051;-69
2021/12/22 10:56:27;;;;;;;27.63;14.95;;;1.00;99.90;;;;;;5133266;27;20038;-69
2021/12/22 10:59:00;;;;;;;26.65;15.98;;;0.90;99.90;;;;;;5134391;27;20046;-68
2021/12/22 11:01:25;;;;;;;31.33;16.25;;;0.90;99.90;;;;;;5129263;27;20043;-69
2021/12/22 11:04:00;;;;;;;27.17;16.33;;;1.00;99.90;;;;;;5131751;27;20364;-69
2021/12/22 11:06:29;;;;;;;31.98;16.55;;;0.90;99.90;;;;;;5122482;27;20035;-69
2021/12/22 11:08:58;;;;;;;26.02;15.20;;;0.90;99.90;;;;;;5151622;27;20184;-69
2021/12/22 11:11:29;;;;;;;26.33;16.10;;;1.00;99.90;;;;;;5138800;27;20031;-69
2021/12/22 11:14:05;;;;;;;26.67;15.77;;;1.00;99.90;;;;;;5132034;27;20055;-69
2021/12/22 11:16:30;;;;;;;31.33;16.25;;;1.10;99.90;;;;;;5143076;27;20034;-69
2021/12/22 11:19:08;;;;;;;24.85;15.30;;;1.10;99.90;;;;;;5150288;27;20065;-69
2021/12/22 11:21:35;;;;;;;31.35;16.77;;;1.10;99.90;;;;;;5129638;27;20061;-69
2021/12/22 11:24:01;;;;;;;24.27;14.73;;;1.10;99.90;;;;;;5112048;27;20061;-69
2021/12/22 11:26:28;;;;;;;26.27;16.25;;;1.20;99.90;;;;;;5123706;27;20047;-69
2021/12/22 11:28:53;;;;;;;26.20;15.43;;;1.20;99.90;;;;;;5151924;27;20461;-69
2021/12/22 11:31:19;;;;;;;28.60;15.32;;;1.20;99.90;;;;;;5151197;27;20055;-69
2021/12/22 11:33:46;;;;;;;26.75;16.17;;;1.20;99.90;;;;;;5135878;27;20043;-70
2021/12/22 11:36:13;;;;;;;29.73;17.00;;;1.20;99.90;;;;;;5133608;27;20050;-69
2021/12/22 11:38:41;;;;;;;26.77;14.52;;;1.30;99.90;;;;;;5139906;27;20078;-69
2021/12/22 11:41:11;;;;;;;26.75;15.25;;;1.40;99.90;;;;;;5110876;27;20069;-69
2021/12/22 11:43:38;;;;;;;28.23;16.20;;;1.40;99.90;;;;;;5146070;27;20187;-69
2021/12/22 11:46:05;;;;;;;27.80;15.52;;;1.50;99.90;;;;;;5150900;27;20408;-69
2021/12/22 11:48:34;;;;;;;29.45;16.30;;;1.50;99.90;;;;;;5124187;27;20058;-69
2021/12/22 11:51:00;;;;;;;27.85;14.77;;;1.60;99.90;;;;;;5133677;27;20489;-69
2021/12/22 11:53:25;;;;;;;28.17;17.95;;;1.70;99.90;;;;;;5151335;27;20046;-69
2021/12/22 11:55:55;;;;;;;27.30;15.93;;;1.80;99.90;;;;;;5143179;27;20043;-69
2021/12/22 11:58:36;;;;;;;25.95;15.35;;;1.90;99.90;;;;;;5111066;27;20053;-69
2021/12/22 12:01:10;;;;;;;26.27;15.50;;;2.10;99.90;;;;;;5110846;27;20047;-68
2021/12/22 12:03:44;;;;;;;28.90;16.45;;;1.90;99.90;;;;;;5111878;27;20043;-69
2021/12/22 12:06:14;;;;;;;31.40;16.05;;;2.00;99.90;;;;;;5113728;27;20058;-68
2021/12/22 12:08:42;;;;;;;23.55;14.95;;;2.00;99.90;;;;;;5151238;27;20503;-68
2021/12/22 12:11:10;;;;;;;25.15;15.80;;;2.00;99.90;;;;;;5149743;27;20183;-68
2021/12/22 12:21:55;;;;;;;23.35;14.50;;;2.50;99.90;;;;;;5109797;27;20089;-69
2021/12/22 12:24:31;;;;;;;23.75;15.50;;;2.30;99.90;;;;;;5139838;27;20441;-68
2021/12/22 12:26:59;;;;;;;26.38;16.95;;;2.20;99.90;;;;;;5130985;27;20520;-68
2021/12/22 12:29:55;;;;;;;27.90;16.88;;;2.20;99.90;;;;;;5148588;27;20053;-68
2021/12/22 12:32:40;;;;;;;31.63;16.00;;;2.00;99.90;;;;;;5138950;27;20051;-68
2021/12/22 12:37:58;;;;;;;31.27;18.00;;;2.00;99.90;;;;;;5129903;27;20047;-69
2021/12/22 12:40:44;;;;;;;29.15;16.17;;;2.00;99.90;;;;;;5122560;27;20039;-67
2021/12/22 12:43:10;;;;;;;28.35;17.33;;;2.00;99.90;;;;;;5091962;27;20074;-68
2021/12/22 12:45:47;;;;;;;27.10;17.20;;;2.00;99.90;;;;;;5127722;27;20633;-69
2021/12/22 12:48:30;;;;;;;30.27;17.38;;;2.00;99.90;;;;;;5125477;27;20039;-69
2021/12/22 12:51:15;;;;;;;24.60;15.88;;;2.10;99.90;;;;;;5090840;28;20399;-69
2021/12/22 12:53:44;;;;;;;24.90;15.05;;;2.20;99.90;;;;;;5147915;27;20489;-70
2021/12/22 12:56:10;;;;;;;26.92;16.40;;;2.30;99.90;;;;;;5150608;27;20049;-69
2021/12/22 12:59:00;;;;;;;20.58;14.80;;;2.50;99.90;;;;;;5150702;27;20071;-69
2021/12/22 13:01:44;;;;;;;28.17;15.35;;;2.50;99.90;;;;;;5108409;27;20046;-69
2021/12/22 13:04:34;;;;;;;22.35;14.35;;;2.60;99.90;;;;;;5110455;27;20134;-69